sensor_id;sensor_type;location;lat;lon;timestamp;pressure;altitude;pressure_sealevel;temperature
63220;BMP180;49320;52.512;13.448;2023-10-13T00:01:09;100992.00;;;21.70
63220;BMP180;49320;52.512;13.448;2023-10-13T00:03:39;100983.00;;;21.70
63220;BMP180;49320;52.512;13.448;2023-10-13T00:06:07;100983.00;;;21.70
63220;BMP180;49320;52.512;13.448;2023-10-13T00:08:34;100993.00;;;21.70
63220;BMP180;49320;52.512;13.448;2023-10-13T00:11:03;100986.00;;;21.70
63220;BMP180;49320;52.512;13.448;2023-10-13T00:13:31;100978.00;;;21.80
63220;BMP180;49320;52.512;13.448;2023-10-13T00:16:09;100984.00;;;21.70
63220;BMP180;49320;52.512;13.448;2023-10-13T00:18:37;100978.00;;;21.80
63220;BMP180;49320;52.512;13.448;2023-10-13T00:21:11;100974.00;;;21.80
63220;BMP180;49320;52.512;13.448;2023-10-13T00:23:44;100978.00;;;21.70
63220;BMP180;49320;52.512;13.448;2023-10-13T00:26:22;100982.00;;;21.70
63220;BMP180;49320;52.512;13.448;2023-10-13T00:28:57;100975.00;;;21.70
63220;BMP180;49320;52.512;13.448;2023-10-13T00:31:40;100956.00;;;21.70
63220;BMP180;49320;52.512;13.448;2023-10-13T00:34:10;100959.00;;;21.70
63220;BMP180;49320;52.512;13.448;2023-10-13T00:36:47;100962.00;;;21.70
63220;BMP180;49320;52.512;13.448;2023-10-13T00:39:38;100968.00;;;21.60
63220;BMP180;49320;52.512;13.448;2023-10-13T00:42:12;100963.00;;;21.60
63220;BMP180;49320;52.512;13.448;2023-10-13T00:44:46;100974.00;;;21.60
63220;BMP180;49320;52.512;13.448;2023-10-13T00:47:18;100958.00;;;21.60
63220;BMP180;49320;52.512;13.448;2023-10-13T00:50:05;100957.00;;;21.60
63220;BMP180;49320;52.512;13.448;2023-10-13T00:52:36;100956.00;;;21.60
63220;BMP180;49320;52.512;13.448;2023-10-13T00:55:04;100953.00;;;21.60
63220;BMP180;49320;52.512;13.448;2023-10-13T00:57:32;100954.00;;;21.60
63220;BMP180;49320;52.512;13.448;2023-10-13T01:00:00;100949.00;;;21.60
63220;BMP180;49320;52.512;13.448;2023-10-13T01:02:47;100951.00;;;21.60
63220;BMP180;49320;52.512;13.448;2023-10-13T01:05:25;100955.00;;;21.50
63220;BMP180;49320;52.512;13.448;2023-10-13T01:07:52;100945.00;;;21.50
63220;BMP180;49320;52.512;13.448;2023-10-13T01:10:22;100952.00;;;21.60
63220;BMP180;49320;52.512;13.448;2023-10-13T01:12:59;100947.00;;;21.50
63220;BMP180;49320;52.512;13.448;2023-10-13T01:15:28;100941.00;;;21.50
63220;BMP180;49320;52.512;13.448;2023-10-13T01:18:08;100945.00;;;21.50
63220;BMP180;49320;52.512;13.448;2023-10-13T01:20:39;100939.00;;;21.50
63220;BMP180;49320;52.512;13.448;2023-10-13T01:23:15;100940.00;;;21.50
63220;BMP180;49320;52.512;13.448;2023-10-13T01:25:46;100931.00;;;21.40
63220;BMP180;49320;52.512;13.448;2023-10-13T01:28:14;100950.00;;;21.40
63220;BMP180;49320;52.512;13.448;2023-10-13T01:30:43;100948.00;;;21.40
63220;BMP180;49320;52.512;13.448;2023-10-13T01:33:11;100955.00;;;21.40
63220;BMP180;49320;52.512;13.448;2023-10-13T01:35:38;100945.00;;;21.40
63220;BMP180;49320;52.512;13.448;2023-10-13T01:38:08;100957.00;;;21.40
63220;BMP180;49320;52.512;13.448;2023-10-13T01:40:35;100955.00;;;21.50
63220;BMP180;49320;52.512;13.448;2023-10-13T01:43:02;100956.00;;;21.50
63220;BMP180;49320;52.512;13.448;2023-10-13T01:45:31;100953.00;;;21.50
63220;BMP180;49320;52.512;13.448;2023-10-13T01:47:58;100943.00;;;21.50
63220;BMP180;49320;52.512;13.448;2023-10-13T01:50:25;100953.00;;;21.50
63220;BMP180;49320;52.512;13.448;2023-10-13T01:52:56;100950.00;;;21.50
63220;BMP180;49320;52.512;13.448;2023-10-13T01:55:43;100948.00;;;21.50
63220;BMP180;49320;52.512;13.448;2023-10-13T01:58:15;100942.00;;;21.50
63220;BMP180;49320;52.512;13.448;2023-10-13T02:00:44;100937.00;;;21.50
63220;BMP180;49320;52.512;13.448;2023-10-13T02:03:12;100935.00;;;21.50
63220;BMP180;49320;52.512;13.448;2023-10-13T02:05:48;100944.00;;;21.50
63220;BMP180;49320;52.512;13.448;2023-10-13T02:08:21;100947.00;;;21.50
63220;BMP180;49320;52.512;13.448;2023-10-13T02:10:54;100946.00;;;21.50
63220;BMP180;49320;52.512;13.448;2023-10-13T02:13:23;100948.00;;;21.50
63220;BMP180;49320;52.512;13.448;2023-10-13T02:15:55;100936.00;;;21.50
63220;BMP180;49320;52.512;13.448;2023-10-13T02:18:30;100931.00;;;21.50
63220;BMP180;49320;52.512;13.448;2023-10-13T02:21:08;100927.00;;;21.60
63220;BMP180;49320;52.512;13.448;2023-10-13T02:23:40;100918.00;;;21.60
63220;BMP180;49320;52.512;13.448;2023-10-13T02:26:12;100913.00;;;21.60
63220;BMP180;49320;52.512;13.448;2023-10-13T02:28:48;100901.00;;;21.50
63220;BMP180;49320;52.512;13.448;2023-10-13T02:31:18;100902.00;;;21.50
63220;BMP180;49320;52.512;13.448;2023-10-13T02:33:50;100894.00;;;21.50
63220;BMP180;49320;52.512;13.448;2023-10-13T02:36:17;100901.00;;;21.50
63220;BMP180;49320;52.512;13.448;2023-10-13T02:38:52;100914.00;;;21.50
63220;BMP180;49320;52.512;13.448;2023-10-13T02:41:20;100901.00;;;21.50
63220;BMP180;49320;52.512;13.448;2023-10-13T02:43:54;100894.00;;;21.50
63220;BMP180;49320;52.512;13.448;2023-10-13T02:46:23;100897.00;;;21.50
63220;BMP180;49320;52.512;13.448;2023-10-13T02:48:50;100895.00;;;21.50
63220;BMP180;49320;52.512;13.448;2023-10-13T02:51:20;100893.00;;;21.50
63220;BMP180;49320;52.512;13.448;2023-10-13T02:53:58;100889.00;;;21.50
63220;BMP180;49320;52.512;13.448;2023-10-13T02:56:29;100887.00;;;21.50
63220;BMP180;49320;52.512;13.448;2023-10-13T02:58:56;100889.00;;;21.50
63220;BMP180;49320;52.512;13.448;2023-10-13T03:01:24;100886.00;;;21.50
63220;BMP180;49320;52.512;13.448;2023-10-13T03:04:03;100883.00;;;21.50
63220;BMP180;49320;52.512;13.448;2023-10-13T03:06:30;100880.00;;;21.50
63220;BMP180;49320;52.512;13.448;2023-10-13T03:09:07;100877.00;;;21.50
63220;BMP180;49320;52.512;13.448;2023-10-13T03:11:42;100868.00;;;21.60
63220;BMP180;49320;52.512;13.448;2023-10-13T03:14:10;100870.00;;;21.60
63220;BMP180;49320;52.512;13.448;2023-10-13T03:16:57;100865.00;;;21.60
63220;BMP180;49320;52.512;13.448;2023-10-13T03:19:35;100853.00;;;21.60
63220;BMP180;49320;52.512;13.448;2023-10-13T03:22:08;100845.00;;;21.60
63220;BMP180;49320;52.512;13.448;2023-10-13T03:24:39;100851.00;;;21.50
63220;BMP180;49320;52.512;13.448;2023-10-13T03:27:13;100846.00;;;21.60
63220;BMP180;49320;52.512;13.448;2023-10-13T03:29:45;100836.00;;;21.50
63220;BMP180;49320;52.512;13.448;2023-10-13T03:32:21;100843.00;;;21.60
63220;BMP180;49320;52.512;13.448;2023-10-13T03:34:48;100832.00;;;21.60
63220;BMP180;49320;52.512;13.448;2023-10-13T03:37:35;100830.00;;;21.60
63220;BMP180;49320;52.512;13.448;2023-10-13T03:40:09;100817.00;;;21.60
63220;BMP180;49320;52.512;13.448;2023-10-13T03:42:50;100817.00;;;21.60
63220;BMP180;49320;52.512;13.448;2023-10-13T03:45:43;100807.00;;;21.60
63220;BMP180;49320;52.512;13.448;2023-10-13T03:48:16;100799.00;;;21.60
63220;BMP180;49320;52.512;13.448;2023-10-13T03:50:59;100809.00;;;21.60
63220;BMP180;49320;52.512;13.448;2023-10-13T03:53:31;100800.00;;;21.60
63220;BMP180;49320;52.512;13.448;2023-10-13T03:56:07;100808.00;;;21.60
63220;BMP180;49320;52.512;13.448;2023-10-13T03:58:59;100811.00;;;21.60
63220;BMP180;49320;52.512;13.448;2023-10-13T04:01:47;100797.00;;;21.60
63220;BMP180;49320;52.512;13.448;2023-10-13T04:04:25;100801.00;;;21.60
63220;BMP180;49320;52.512;13.448;2023-10-13T04:07:04;100798.00;;;21.60
63220;BMP180;49320;52.512;13.448;2023-10-13T04:09:36;100795.00;;;21.60
63220;BMP180;49320;52.512;13.448;2023-10-13T04:12:05;100789.00;;;21.60
63220;BMP180;49320;52.512;13.448;2023-10-13T04:14:36;100782.00;;;21.60
63220;BMP180;49320;52.512;13.448;2023-10-13T04:17:09;100788.00;;;21.60
63220;BMP180;49320;52.512;13.448;2023-10-13T04:19:44;100798.00;;;21.60
63220;BMP180;49320;52.512;13.448;2023-10-13T04:22:29;100795.00;;;21.70
63220;BMP180;49320;52.512;13.448;2023-10-13T04:25:27;100788.00;;;21.70
63220;BMP180;49320;52.512;13.448;2023-10-13T04:28:14;100793.00;;;21.70
63220;BMP180;49320;52.512;13.448;2023-10-13T04:30:49;100784.00;;;21.70
63220;BMP180;49320;52.512;13.448;2023-10-13T04:33:26;100794.00;;;21.80
63220;BMP180;49320;52.512;13.448;2023-10-13T04:36:12;100777.00;;;21.80
63220;BMP180;49320;52.512;13.448;2023-10-13T04:39:03;100761.00;;;21.80
63220;BMP180;49320;52.512;13.448;2023-10-13T04:41:38;100777.00;;;21.80
63220;BMP180;49320;52.512;13.448;2023-10-13T04:44:13;100772.00;;;21.80
63220;BMP180;49320;52.512;13.448;2023-10-13T04:47:00;100754.00;;;21.80
63220;BMP180;49320;52.512;13.448;2023-10-13T04:49:29;100751.00;;;21.80
63220;BMP180;49320;52.512;13.448;2023-10-13T04:52:17;100753.00;;;21.80
63220;BMP180;49320;52.512;13.448;2023-10-13T04:55:03;100750.00;;;21.90
63220;BMP180;49320;52.512;13.448;2023-10-13T04:57:43;100753.00;;;21.90
63220;BMP180;49320;52.512;13.448;2023-10-13T05:00:13;100743.00;;;21.90
63220;BMP180;49320;52.512;13.448;2023-10-13T05:02:45;100752.00;;;21.90
63220;BMP180;49320;52.512;13.448;2023-10-13T05:05:45;100755.00;;;21.90
63220;BMP180;49320;52.512;13.448;2023-10-13T05:08:32;100755.00;;;22.00
63220;BMP180;49320;52.512;13.448;2023-10-13T05:11:17;100754.00;;;22.00
63220;BMP180;49320;52.512;13.448;2023-10-13T05:14:02;100737.00;;;22.00
63220;BMP180;49320;52.512;13.448;2023-10-13T05:16:48;100753.00;;;22.00
63220;BMP180;49320;52.512;13.448;2023-10-13T05:19:34;100754.00;;;22.00
63220;BMP180;49320;52.512;13.448;2023-10-13T05:22:19;100741.00;;;22.00
63220;BMP180;49320;52.512;13.448;2023-10-13T05:25:04;100740.00;;;22.00
63220;BMP180;49320;52.512;13.448;2023-10-13T05:27:50;100734.00;;;22.00
63220;BMP180;49320;52.512;13.448;2023-10-13T05:30:52;100744.00;;;22.00
63220;BMP180;49320;52.512;13.448;2023-10-13T05:33:37;100754.00;;;22.00
63220;BMP180;49320;52.512;13.448;2023-10-13T05:36:23;100742.00;;;22.10
63220;BMP180;49320;52.512;13.448;2023-10-13T05:39:09;100743.00;;;22.10
63220;BMP180;49320;52.512;13.448;2023-10-13T05:41:54;100736.00;;;22.10
63220;BMP180;49320;52.512;13.448;2023-10-13T05:44:40;100737.00;;;22.10
63220;BMP180;49320;52.512;13.448;2023-10-13T05:47:23;100727.00;;;22.20
63220;BMP180;49320;52.512;13.448;2023-10-13T05:50:10;100742.00;;;22.20
63220;BMP180;49320;52.512;13.448;2023-10-13T05:52:50;100745.00;;;22.20
63220;BMP180;49320;52.512;13.448;2023-10-13T05:55:26;100726.00;;;22.20
63220;BMP180;49320;52.512;13.448;2023-10-13T05:58:12;100727.00;;;22.20
63220;BMP180;49320;52.512;13.448;2023-10-13T06:00:58;100734.00;;;22.20
63220;BMP180;49320;52.512;13.448;2023-10-13T06:03:44;100730.00;;;22.20
63220;BMP180;49320;52.512;13.448;2023-10-13T06:06:29;100736.00;;;22.20
63220;BMP180;49320;52.512;13.448;2023-10-13T06:09:15;100733.00;;;22.30
63220;BMP180;49320;52.512;13.448;2023-10-13T06:12:00;100724.00;;;22.30
63220;BMP180;49320;52.512;13.448;2023-10-13T06:14:47;100724.00;;;22.40
63220;BMP180;49320;52.512;13.448;2023-10-13T06:17:32;100719.00;;;22.40
63220;BMP180;49320;52.512;13.448;2023-10-13T06:20:17;100706.00;;;22.50
63220;BMP180;49320;52.512;13.448;2023-10-13T06:23:03;100708.00;;;22.50
63220;BMP180;49320;52.512;13.448;2023-10-13T06:25:55;100707.00;;;22.60
63220;BMP180;49320;52.512;13.448;2023-10-13T06:28:40;100713.00;;;22.60
63220;BMP180;49320;52.512;13.448;2023-10-13T06:31:10;100707.00;;;22.60
63220;BMP180;49320;52.512;13.448;2023-10-13T06:33:57;100707.00;;;22.70
63220;BMP180;49320;52.512;13.448;2023-10-13T06:36:24;100719.00;;;22.70
63220;BMP180;49320;52.512;13.448;2023-10-13T06:38:52;100716.00;;;22.70
63220;BMP180;49320;52.512;13.448;2023-10-13T06:41:22;100707.00;;;22.70
63220;BMP180;49320;52.512;13.448;2023-10-13T06:43:58;100711.00;;;22.80
63220;BMP180;49320;52.512;13.448;2023-10-13T06:46:28;100705.00;;;22.80
63220;BMP180;49320;52.512;13.448;2023-10-13T06:48:56;100715.00;;;22.80
63220;BMP180;49320;52.512;13.448;2023-10-13T06:51:26;100710.00;;;22.80
63220;BMP180;49320;52.512;13.448;2023-10-13T06:53:58;100719.00;;;22.80
63220;BMP180;49320;52.512;13.448;2023-10-13T06:56:25;100715.00;;;22.80
63220;BMP180;49320;52.512;13.448;2023-10-13T06:58:56;100707.00;;;22.90
63220;BMP180;49320;52.512;13.448;2023-10-13T07:01:27;100693.00;;;22.90
63220;BMP180;49320;52.512;13.448;2023-10-13T07:03:54;100693.00;;;22.90
63220;BMP180;49320;52.512;13.448;2023-10-13T07:06:28;100698.00;;;23.00
63220;BMP180;49320;52.512;13.448;2023-10-13T07:08:55;100709.00;;;23.10
63220;BMP180;49320;52.512;13.448;2023-10-13T07:11:27;100711.00;;;23.10
63220;BMP180;49320;52.512;13.448;2023-10-13T07:14:02;100710.00;;;23.20
63220;BMP180;49320;52.512;13.448;2023-10-13T07:17:01;100706.00;;;23.30
63220;BMP180;49320;52.512;13.448;2023-10-13T07:19:30;100703.00;;;23.50
63220;BMP180;49320;52.512;13.448;2023-10-13T07:22:01;100711.00;;;23.60
63220;BMP180;49320;52.512;13.448;2023-10-13T07:24:49;100710.00;;;23.70
63220;BMP180;49320;52.512;13.448;2023-10-13T07:27:20;100698.00;;;23.80
63220;BMP180;49320;52.512;13.448;2023-10-13T07:29:54;100701.00;;;24.00
63220;BMP180;49320;52.512;13.448;2023-10-13T07:32:41;100695.00;;;24.10
63220;BMP180;49320;52.512;13.448;2023-10-13T07:35:18;100693.00;;;24.10
63220;BMP180;49320;52.512;13.448;2023-10-13T07:37:51;100680.00;;;24.20
63220;BMP180;49320;52.512;13.448;2023-10-13T07:40:22;100690.00;;;24.30
63220;BMP180;49320;52.512;13.448;2023-10-13T07:42:56;100686.00;;;24.40
63220;BMP180;49320;52.512;13.448;2023-10-13T07:45:40;100685.00;;;24.40
63220;BMP180;49320;52.512;13.448;2023-10-13T07:48:10;100680.00;;;24.40
63220;BMP180;49320;52.512;13.448;2023-10-13T07:50:58;100679.00;;;24.50
63220;BMP180;49320;52.512;13.448;2023-10-13T07:53:32;100682.00;;;24.50
63220;BMP180;49320;52.512;13.448;2023-10-13T07:56:02;100694.00;;;24.60
63220;BMP180;49320;52.512;13.448;2023-10-13T07:58:32;100681.00;;;24.70
63220;BMP180;49320;52.512;13.448;2023-10-13T08:00:59;100676.00;;;24.70
63220;BMP180;49320;52.512;13.448;2023-10-13T08:03:36;100671.00;;;24.70
63220;BMP180;49320;52.512;13.448;2023-10-13T08:06:16;100673.00;;;24.70
63220;BMP180;49320;52.512;13.448;2023-10-13T08:08:47;100674.00;;;24.80
63220;BMP180;49320;52.512;13.448;2023-10-13T08:11:20;100675.00;;;24.80
63220;BMP180;49320;52.512;13.448;2023-10-13T08:14:01;100675.00;;;24.90
63220;BMP180;49320;52.512;13.448;2023-10-13T08:17:05;100655.00;;;24.90
63220;BMP180;49320;52.512;13.448;2023-10-13T08:19:36;100659.00;;;24.90
63220;BMP180;49320;52.512;13.448;2023-10-13T08:22:09;100665.00;;;25.00
63220;BMP180;49320;52.512;13.448;2023-10-13T08:24:48;100667.00;;;25.10
63220;BMP180;49320;52.512;13.448;2023-10-13T08:27:19;100655.00;;;25.10
63220;BMP180;49320;52.512;13.448;2023-10-13T08:30:03;100652.00;;;25.20
63220;BMP180;49320;52.512;13.448;2023-10-13T08:32:52;100649.00;;;25.20
63220;BMP180;49320;52.512;13.448;2023-10-13T08:35:25;100637.00;;;25.30
63220;BMP180;49320;52.512;13.448;2023-10-13T08:38:03;100647.00;;;25.40
63220;BMP180;49320;52.512;13.448;2023-10-13T08:40:59;100647.00;;;25.50
63220;BMP180;49320;52.512;13.448;2023-10-13T08:43:45;100649.00;;;25.60
63220;BMP180;49320;52.512;13.448;2023-10-13T08:46:20;100635.00;;;25.60
63220;BMP180;49320;52.512;13.448;2023-10-13T08:48:59;100634.00;;;25.70
63220;BMP180;49320;52.512;13.448;2023-10-13T08:51:58;100634.00;;;25.70
63220;BMP180;49320;52.512;13.448;2023-10-13T08:54:54;100620.00;;;25.80
63220;BMP180;49320;52.512;13.448;2023-10-13T08:57:51;100618.00;;;25.80
63220;BMP180;49320;52.512;13.448;2023-10-13T09:00:29;100627.00;;;25.80
63220;BMP180;49320;52.512;13.448;2023-10-13T09:03:15;100614.00;;;25.80
63220;BMP180;49320;52.512;13.448;2023-10-13T09:05:55;100602.00;;;25.90
63220;BMP180;49320;52.512;13.448;2023-10-13T09:08:29;100611.00;;;25.90
63220;BMP180;49320;52.512;13.448;2023-10-13T09:11:21;100602.00;;;26.00
63220;BMP180;49320;52.512;13.448;2023-10-13T09:13:53;100596.00;;;26.00
63220;BMP180;49320;52.512;13.448;2023-10-13T09:16:20;100611.00;;;26.10
63220;BMP180;49320;52.512;13.448;2023-10-13T09:19:10;100610.00;;;26.10
63220;BMP180;49320;52.512;13.448;2023-10-13T09:21:40;100612.00;;;26.10
63220;BMP180;49320;52.512;13.448;2023-10-13T09:24:12;100606.00;;;26.20
63220;BMP180;49320;52.512;13.448;2023-10-13T09:26:50;100598.00;;;26.20
63220;BMP180;49320;52.512;13.448;2023-10-13T09:29:23;100583.00;;;26.10
63220;BMP180;49320;52.512;13.448;2023-10-13T09:32:02;100587.00;;;26.10
63220;BMP180;49320;52.512;13.448;2023-10-13T09:34:31;100589.00;;;26.10
63220;BMP180;49320;52.512;13.448;2023-10-13T09:37:01;100572.00;;;26.10
63220;BMP180;49320;52.512;13.448;2023-10-13T09:39:32;100572.00;;;26.10
63220;BMP180;49320;52.512;13.448;2023-10-13T09:42:12;100570.00;;;26.10
63220;BMP180;49320;52.512;13.448;2023-10-13T09:44:43;100566.00;;;26.10
63220;BMP180;49320;52.512;13.448;2023-10-13T09:47:22;100561.00;;;26.10
63220;BMP180;49320;52.512;13.448;2023-10-13T09:50:07;100548.00;;;26.20
63220;BMP180;49320;52.512;13.448;2023-10-13T09:52:45;100541.00;;;26.20
63220;BMP180;49320;52.512;13.448;2023-10-13T09:55:27;100545.00;;;26.20
63220;BMP180;49320;52.512;13.448;2023-10-13T09:58:07;100535.00;;;26.20
63220;BMP180;49320;52.512;13.448;2023-10-13T10:00:52;100533.00;;;26.20
63220;BMP180;49320;52.512;13.448;2023-10-13T10:03:47;100528.00;;;26.10
63220;BMP180;49320;52.512;13.448;2023-10-13T10:06:23;100524.00;;;26.10
63220;BMP180;49320;52.512;13.448;2023-10-13T10:09:09;100522.00;;;26.10
63220;BMP180;49320;52.512;13.448;2023-10-13T10:12:03;100517.00;;;26.10
63220;BMP180;49320;52.512;13.448;2023-10-13T10:15:06;100512.00;;;26.10
63220;BMP180;49320;52.512;13.448;2023-10-13T10:17:42;100514.00;;;26.10
63220;BMP180;49320;52.512;13.448;2023-10-13T10:20:10;100518.00;;;26.10
63220;BMP180;49320;52.512;13.448;2023-10-13T10:23:00;100518.00;;;26.20
63220;BMP180;49320;52.512;13.448;2023-10-13T10:25:35;100516.00;;;26.20
63220;BMP180;49320;52.512;13.448;2023-10-13T10:28:04;100511.00;;;26.20
63220;BMP180;49320;52.512;13.448;2023-10-13T10:30:36;100503.00;;;26.20
63220;BMP180;49320;52.512;13.448;2023-10-13T10:33:06;100505.00;;;26.20
63220;BMP180;49320;52.512;13.448;2023-10-13T10:35:44;100504.00;;;26.20
63220;BMP180;49320;52.512;13.448;2023-10-13T10:38:18;100512.00;;;26.20
63220;BMP180;49320;52.512;13.448;2023-10-13T10:41:04;100501.00;;;26.20
63220;BMP180;49320;52.512;13.448;2023-10-13T10:48:53;100497.00;;;26.20
63220;BMP180;49320;52.512;13.448;2023-10-13T10:51:28;100480.00;;;26.10
63220;BMP180;49320;52.512;13.448;2023-10-13T10:54:00;100478.00;;;26.10
63220;BMP180;49320;52.512;13.448;2023-10-13T10:56:39;100477.00;;;26.00
63220;BMP180;49320;52.512;13.448;2023-10-13T10:59:07;100485.00;;;26.00
63220;BMP180;49320;52.512;13.448;2023-10-13T11:01:46;100467.00;;;26.00
63220;BMP180;49320;52.512;13.448;2023-10-13T11:04:19;100452.00;;;26.00
63220;BMP180;49320;52.512;13.448;2023-10-13T11:06:52;100452.00;;;26.00
63220;BMP180;49320;52.512;13.448;2023-10-13T11:09:28;100457.00;;;26.00
63220;BMP180;49320;52.512;13.448;2023-10-13T11:12:10;100438.00;;;26.10
63220;BMP180;49320;52.512;13.448;2023-10-13T11:15:04;100445.00;;;26.10
63220;BMP180;49320;52.512;13.448;2023-10-13T11:17:39;100440.00;;;26.10
63220;BMP180;49320;52.512;13.448;2023-10-13T11:20:16;100429.00;;;26.20
63220;BMP180;49320;52.512;13.448;2023-10-13T11:22:48;100431.00;;;26.20
63220;BMP180;49320;52.512;13.448;2023-10-13T11:25:29;100442.00;;;26.30
63220;BMP180;49320;52.512;13.448;2023-10-13T11:27:57;100434.00;;;26.30
63220;BMP180;49320;52.512;13.448;2023-10-13T11:30:27;100425.00;;;26.30
63220;BMP180;49320;52.512;13.448;2023-10-13T11:33:15;100424.00;;;26.30
63220;BMP180;49320;52.512;13.448;2023-10-13T11:35:46;100410.00;;;26.40
63220;BMP180;49320;52.512;13.448;2023-10-13T11:38:33;100423.00;;;26.40
63220;BMP180;49320;52.512;13.448;2023-10-13T11:41:17;100411.00;;;26.40
63220;BMP180;49320;52.512;13.448;2023-10-13T11:43:51;100412.00;;;26.50
63220;BMP180;49320;52.512;13.448;2023-10-13T11:46:26;100402.00;;;26.50
63220;BMP180;49320;52.512;13.448;2023-10-13T11:49:04;100402.00;;;26.50
63220;BMP180;49320;52.512;13.448;2023-10-13T11:51:42;100398.00;;;26.50
63220;BMP180;49320;52.512;13.448;2023-10-13T11:54:20;100402.00;;;26.60
63220;BMP180;49320;52.512;13.448;2023-10-13T11:56:49;100404.00;;;26.60
63220;BMP180;49320;52.512;13.448;2023-10-13T11:59:16;100389.00;;;26.60
63220;BMP180;49320;52.512;13.448;2023-10-13T12:01:51;100393.00;;;26.60
63220;BMP180;49320;52.512;13.448;2023-10-13T12:04:38;100383.00;;;26.70
63220;BMP180;49320;52.512;13.448;2023-10-13T12:07:22;100386.00;;;26.70
63220;BMP180;49320;52.512;13.448;2023-10-13T12:10:08;100369.00;;;26.80
63220;BMP180;49320;52.512;13.448;2023-10-13T12:12:42;100360.00;;;26.80
63220;BMP180;49320;52.512;13.448;2023-10-13T12:15:13;100360.00;;;26.90
63220;BMP180;49320;52.512;13.448;2023-10-13T12:17:52;100364.00;;;26.90
63220;BMP180;49320;52.512;13.448;2023-10-13T12:20:20;100356.00;;;27.00
63220;BMP180;49320;52.512;13.448;2023-10-13T12:23:00;100368.00;;;27.00
63220;BMP180;49320;52.512;13.448;2023-10-13T12:25:39;100354.00;;;27.10
63220;BMP180;49320;52.512;13.448;2023-10-13T12:28:23;100348.00;;;27.10
63220;BMP180;49320;52.512;13.448;2023-10-13T12:30:53;100336.00;;;27.10
63220;BMP180;49320;52.512;13.448;2023-10-13T12:33:21;100339.00;;;27.10
63220;BMP180;49320;52.512;13.448;2023-10-13T12:35:59;100333.00;;;27.20
63220;BMP180;49320;52.512;13.448;2023-10-13T12:38:39;100326.00;;;27.30
63220;BMP180;49320;52.512;13.448;2023-10-13T12:41:19;100332.00;;;27.30
63220;BMP180;49320;52.512;13.448;2023-10-13T12:44:06;100323.00;;;27.40
63220;BMP180;49320;52.512;13.448;2023-10-13T12:46:53;100322.00;;;27.40
63220;BMP180;49320;52.512;13.448;2023-10-13T12:49:38;100310.00;;;27.50
63220;BMP180;49320;52.512;13.448;2023-10-13T12:52:15;100307.00;;;27.50
63220;BMP180;49320;52.512;13.448;2023-10-13T12:54:43;100293.00;;;27.60
63220;BMP180;49320;52.512;13.448;2023-10-13T12:57:14;100291.00;;;27.70
63220;BMP180;49320;52.512;13.448;2023-10-13T12:59:43;100293.00;;;27.70
63220;BMP180;49320;52.512;13.448;2023-10-13T13:02:09;100293.00;;;27.80
63220;BMP180;49320;52.512;13.448;2023-10-13T13:04:42;100274.00;;;27.90
63220;BMP180;49320;52.512;13.448;2023-10-13T13:07:11;100274.00;;;27.90
63220;BMP180;49320;52.512;13.448;2023-10-13T13:09:41;100273.00;;;28.00
63220;BMP180;49320;52.512;13.448;2023-10-13T13:12:08;100266.00;;;28.00
63220;BMP180;49320;52.512;13.448;2023-10-13T13:14:41;100265.00;;;28.00
63220;BMP180;49320;52.512;13.448;2023-10-13T13:17:13;100258.00;;;28.00
63220;BMP180;49320;52.512;13.448;2023-10-13T13:19:40;100259.00;;;28.10
63220;BMP180;49320;52.512;13.448;2023-10-13T13:22:08;100249.00;;;28.10
63220;BMP180;49320;52.512;13.448;2023-10-13T13:24:43;100252.00;;;28.10
63220;BMP180;49320;52.512;13.448;2023-10-13T13:27:11;100251.00;;;28.20
63220;BMP180;49320;52.512;13.448;2023-10-13T13:29:41;100240.00;;;28.20
63220;BMP180;49320;52.512;13.448;2023-10-13T13:32:08;100246.00;;;28.30
63220;BMP180;49320;52.512;13.448;2023-10-13T13:34:45;100237.00;;;28.30
63220;BMP180;49320;52.512;13.448;2023-10-13T13:37:21;100232.00;;;28.40
63220;BMP180;49320;52.512;13.448;2023-10-13T13:39:49;100236.00;;;28.50
63220;BMP180;49320;52.512;13.448;2023-10-13T13:42:19;100231.00;;;28.50
63220;BMP180;49320;52.512;13.448;2023-10-13T13:44:47;100224.00;;;28.50
63220;BMP180;49320;52.512;13.448;2023-10-13T13:47:15;100228.00;;;28.60
63220;BMP180;49320;52.512;13.448;2023-10-13T13:49:42;100228.00;;;28.70
63220;BMP180;49320;52.512;13.448;2023-10-13T13:52:19;100217.00;;;28.70
63220;BMP180;49320;52.512;13.448;2023-10-13T13:55:00;100214.00;;;28.70
63220;BMP180;49320;52.512;13.448;2023-10-13T13:57:30;100222.00;;;28.80
63220;BMP180;49320;52.512;13.448;2023-10-13T13:59:56;100222.00;;;28.80
63220;BMP180;49320;52.512;13.448;2023-10-13T14:02:24;100211.00;;;28.90
63220;BMP180;49320;52.512;13.448;2023-10-13T14:04:53;100209.00;;;28.90
63220;BMP180;49320;52.512;13.448;2023-10-13T14:07:20;100204.00;;;28.90
63220;BMP180;49320;52.512;13.448;2023-10-13T14:09:48;100189.00;;;28.90
63220;BMP180;49320;52.512;13.448;2023-10-13T14:12:19;100195.00;;;28.90
63220;BMP180;49320;52.512;13.448;2023-10-13T14:14:46;100193.00;;;28.90
63220;BMP180;49320;52.512;13.448;2023-10-13T14:17:24;100196.00;;;28.90
63220;BMP180;49320;52.512;13.448;2023-10-13T14:20:00;100189.00;;;28.90
63220;BMP180;49320;52.512;13.448;2023-10-13T14:22:26;100170.00;;;29.00
63220;BMP180;49320;52.512;13.448;2023-10-13T14:24:53;100184.00;;;29.00
63220;BMP180;49320;52.512;13.448;2023-10-13T14:27:23;100185.00;;;29.00
63220;BMP180;49320;52.512;13.448;2023-10-13T14:29:50;100192.00;;;29.00
63220;BMP180;49320;52.512;13.448;2023-10-13T14:32:20;100175.00;;;29.00
63220;BMP180;49320;52.512;13.448;2023-10-13T14:34:51;100179.00;;;29.00
63220;BMP180;49320;52.512;13.448;2023-10-13T14:37:22;100169.00;;;29.00
63220;BMP180;49320;52.512;13.448;2023-10-13T14:39:58;100171.00;;;29.10